sensor_id;sensor_type;location;lat;lon;timestamp;P1;durP1;ratioP1;P2;durP2;ratioP2
47715;SDS011;33476;50.984;3.538;2023-04-25T00:02:07;8.65;;;1.73;;
47715;SDS011;33476;50.984;3.538;2023-04-25T00:04:33;7.70;;;1.67;;
47715;SDS011;33476;50.984;3.538;2023-04-25T00:06:59;11.00;;;2.03;;
47715;SDS011;33476;50.984;3.538;2023-04-25T00:09:26;11.05;;;1.98;;
47715;SDS011;33476;50.984;3.538;2023-04-25T00:11:52;12.90;;;1.90;;
47715;SDS011;33476;50.984;3.538;2023-04-25T00:14:17;13.00;;;2.35;;
47715;SDS011;33476;50.984;3.538;2023-04-25T00:16:43;12.32;;;2.28;;
47715;SDS011;33476;50.984;3.538;2023-04-25T00:19:09;14.43;;;2.13;;
47715;SDS011;33476;50.984;3.538;2023-04-25T00:21:34;12.13;;;2.22;;
47715;SDS011;33476;50.984;3.538;2023-04-25T00:24:00;14.70;;;2.60;;
47715;SDS011;33476;50.984;3.538;2023-04-25T00:26:26;12.75;;;2.17;;
47715;SDS011;33476;50.984;3.538;2023-04-25T00:28:52;8.02;;;1.85;;
47715;SDS011;33476;50.984;3.538;2023-04-25T00:31:17;12.02;;;2.05;;
47715;SDS011;33476;50.984;3.538;2023-04-25T00:33:43;10.52;;;1.88;;
47715;SDS011;33476;50.984;3.538;2023-04-25T00:36:08;18.13;;;1.98;;
47715;SDS011;33476;50.984;3.538;2023-04-25T00:38:34;10.32;;;2.03;;
47715;SDS011;33476;50.984;3.538;2023-04-25T00:40:59;11.60;;;2.03;;
47715;SDS011;33476;50.984;3.538;2023-04-25T00:43:25;17.70;;;2.33;;
47715;SDS011;33476;50.984;3.538;2023-04-25T00:45:51;13.35;;;2.35;;
47715;SDS011;33476;50.984;3.538;2023-04-25T00:48:17;10.15;;;2.42;;
47715;SDS011;33476;50.984;3.538;2023-04-25T00:50:43;13.07;;;3.25;;
47715;SDS011;33476;50.984;3.538;2023-04-25T00:53:20;13.45;;;2.33;;
47715;SDS011;33476;50.984;3.538;2023-04-25T00:55:47;10.73;;;2.92;;
47715;SDS011;33476;50.984;3.538;2023-04-25T00:58:13;18.42;;;2.78;;
47715;SDS011;33476;50.984;3.538;2023-04-25T01:00:39;18.35;;;2.70;;
47715;SDS011;33476;50.984;3.538;2023-04-25T01:03:05;13.25;;;2.35;;
47715;SDS011;33476;50.984;3.538;2023-04-25T01:05:31;12.00;;;2.35;;
47715;SDS011;33476;50.984;3.538;2023-04-25T01:07:56;11.45;;;3.30;;
47715;SDS011;33476;50.984;3.538;2023-04-25T01:10:22;17.35;;;2.40;;
47715;SDS011;33476;50.984;3.538;2023-04-25T01:12:48;13.85;;;2.55;;
47715;SDS011;33476;50.984;3.538;2023-04-25T01:15:14;11.10;;;2.38;;
47715;SDS011;33476;50.984;3.538;2023-04-25T01:17:39;16.85;;;2.05;;
47715;SDS011;33476;50.984;3.538;2023-04-25T01:20:05;14.00;;;2.72;;
47715;SDS011;33476;50.984;3.538;2023-04-25T01:22:32;12.25;;;1.73;;
47715;SDS011;33476;50.984;3.538;2023-04-25T01:24:58;10.25;;;1.92;;
47715;SDS011;33476;50.984;3.538;2023-04-25T01:27:24;9.80;;;1.83;;
47715;SDS011;33476;50.984;3.538;2023-04-25T01:29:50;13.15;;;2.35;;
47715;SDS011;33476;50.984;3.538;2023-04-25T01:32:16;20.08;;;2.38;;
47715;SDS011;33476;50.984;3.538;2023-04-25T01:34:42;10.68;;;2.38;;
47715;SDS011;33476;50.984;3.538;2023-04-25T01:37:07;10.85;;;1.77;;
47715;SDS011;33476;50.984;3.538;2023-04-25T01:39:33;10.10;;;1.50;;
47715;SDS011;33476;50.984;3.538;2023-04-25T01:41:59;10.50;;;1.90;;
47715;SDS011;33476;50.984;3.538;2023-04-25T01:44:25;10.80;;;1.70;;
47715;SDS011;33476;50.984;3.538;2023-04-25T01:46:51;14.90;;;1.80;;
47715;SDS011;33476;50.984;3.538;2023-04-25T01:49:16;10.27;;;1.50;;
47715;SDS011;33476;50.984;3.538;2023-04-25T01:51:42;5.55;;;1.30;;
47715;SDS011;33476;50.984;3.538;2023-04-25T01:54:08;7.13;;;1.33;;
47715;SDS011;33476;50.984;3.538;2023-04-25T01:56:36;10.80;;;1.70;;
47715;SDS011;33476;50.984;3.538;2023-04-25T01:59:03;12.27;;;1.75;;
47715;SDS011;33476;50.984;3.538;2023-04-25T02:01:29;5.50;;;1.05;;
47715;SDS011;33476;50.984;3.538;2023-04-25T02:03:55;7.13;;;1.52;;
47715;SDS011;33476;50.984;3.538;2023-04-25T02:06:20;10.13;;;1.38;;
47715;SDS011;33476;50.984;3.538;2023-04-25T02:08:46;5.75;;;1.02;;
47715;SDS011;33476;50.984;3.538;2023-04-25T02:11:11;7.57;;;1.20;;
47715;SDS011;33476;50.984;3.538;2023-04-25T02:13:37;5.05;;;0.73;;
47715;SDS011;33476;50.984;3.538;2023-04-25T02:16:02;9.73;;;1.63;;
47715;SDS011;33476;50.984;3.538;2023-04-25T02:18:28;8.13;;;0.98;;
47715;SDS011;33476;50.984;3.538;2023-04-25T02:20:53;4.65;;;0.77;;
47715;SDS011;33476;50.984;3.538;2023-04-25T02:23:19;11.55;;;1.92;;
47715;SDS011;33476;50.984;3.538;2023-04-25T02:25:45;9.40;;;1.02;;
47715;SDS011;33476;50.984;3.538;2023-04-25T02:28:10;4.82;;;1.02;;
47715;SDS011;33476;50.984;3.538;2023-04-25T02:30:36;7.57;;;1.02;;
47715;SDS011;33476;50.984;3.538;2023-04-25T02:33:02;9.30;;;1.38;;
47715;SDS011;33476;50.984;3.538;2023-04-25T02:35:27;6.55;;;1.08;;
47715;SDS011;33476;50.984;3.538;2023-04-25T02:37:52;9.85;;;1.10;;
47715;SDS011;33476;50.984;3.538;2023-04-25T02:40:18;10.25;;;1.48;;
47715;SDS011;33476;50.984;3.538;2023-04-25T02:42:43;6.25;;;0.50;;
47715;SDS011;33476;50.984;3.538;2023-04-25T02:45:10;13.13;;;1.35;;
47715;SDS011;33476;50.984;3.538;2023-04-25T02:47:36;3.30;;;0.88;;
47715;SDS011;33476;50.984;3.538;2023-04-25T02:50:02;6.72;;;0.82;;
47715;SDS011;33476;50.984;3.538;2023-04-25T02:52:28;4.05;;;0.77;;
47715;SDS011;33476;50.984;3.538;2023-04-25T02:54:53;4.40;;;0.90;;
47715;SDS011;33476;50.984;3.538;2023-04-25T02:57:18;6.40;;;1.33;;
47715;SDS011;33476;50.984;3.538;2023-04-25T02:59:44;7.38;;;1.30;;
47715;SDS011;33476;50.984;3.538;2023-04-25T03:02:09;12.63;;;1.30;;
47715;SDS011;33476;50.984;3.538;2023-04-25T03:04:35;9.65;;;1.83;;
47715;SDS011;33476;50.984;3.538;2023-04-25T03:07:00;6.63;;;1.30;;
47715;SDS011;33476;50.984;3.538;2023-04-25T03:09:26;8.45;;;1.48;;
47715;SDS011;33476;50.984;3.538;2023-04-25T03:11:51;10.20;;;1.88;;
47715;SDS011;33476;50.984;3.538;2023-04-25T03:14:17;13.38;;;2.45;;
47715;SDS011;33476;50.984;3.538;2023-04-25T03:16:42;8.82;;;1.85;;
47715;SDS011;33476;50.984;3.538;2023-04-25T03:19:08;9.52;;;2.65;;
47715;SDS011;33476;50.984;3.538;2023-04-25T03:21:34;14.00;;;2.20;;
47715;SDS011;33476;50.984;3.538;2023-04-25T03:24:01;5.50;;;1.10;;
47715;SDS011;33476;50.984;3.538;2023-04-25T03:26:27;8.90;;;1.23;;
47715;SDS011;33476;50.984;3.538;2023-04-25T03:28:53;8.25;;;0.98;;
47715;SDS011;33476;50.984;3.538;2023-04-25T03:31:18;7.32;;;1.08;;
47715;SDS011;33476;50.984;3.538;2023-04-25T03:33:44;6.55;;;0.80;;
47715;SDS011;33476;50.984;3.538;2023-04-25T03:36:09;7.45;;;1.25;;
47715;SDS011;33476;50.984;3.538;2023-04-25T03:38:35;7.05;;;1.00;;
47715;SDS011;33476;50.984;3.538;2023-04-25T03:41:01;8.57;;;1.20;;
47715;SDS011;33476;50.984;3.538;2023-04-25T03:43:26;11.18;;;1.00;;
47715;SDS011;33476;50.984;3.538;2023-04-25T03:45:52;3.42;;;0.68;;
47715;SDS011;33476;50.984;3.538;2023-04-25T03:48:17;8.70;;;1.30;;
47715;SDS011;33476;50.984;3.538;2023-04-25T03:50:43;2.95;;;0.47;;
47715;SDS011;33476;50.984;3.538;2023-04-25T03:53:08;5.50;;;0.88;;
47715;SDS011;33476;50.984;3.538;2023-04-25T03:55:33;11.43;;;1.30;;
47715;SDS011;33476;50.984;3.538;2023-04-25T03:57:59;10.82;;;1.20;;
47715;SDS011;33476;50.984;3.538;2023-04-25T04:00:25;6.07;;;1.02;;
47715;SDS011;33476;50.984;3.538;2023-04-25T04:02:50;6.40;;;0.77;;
47715;SDS011;33476;50.984;3.538;2023-04-25T04:05:16;8.15;;;1.48;;
47715;SDS011;33476;50.984;3.538;2023-04-25T04:07:42;13.52;;;1.65;;
47715;SDS011;33476;50.984;3.538;2023-04-25T04:10:08;8.05;;;1.23;;
47715;SDS011;33476;50.984;3.538;2023-04-25T04:12:34;9.27;;;1.60;;
47715;SDS011;33476;50.984;3.538;2023-04-25T04:15:01;7.80;;;1.65;;
47715;SDS011;33476;50.984;3.538;2023-04-25T04:17:28;6.85;;;1.20;;
47715;SDS011;33476;50.984;3.538;2023-04-25T04:19:53;6.70;;;1.05;;
47715;SDS011;33476;50.984;3.538;2023-04-25T04:22:18;7.22;;;1.17;;
47715;SDS011;33476;50.984;3.538;2023-04-25T04:24:44;7.97;;;1.15;;
47715;SDS011;33476;50.984;3.538;2023-04-25T04:27:11;14.15;;;2.17;;
47715;SDS011;33476;50.984;3.538;2023-04-25T04:29:37;9.77;;;1.10;;
47715;SDS011;33476;50.984;3.538;2023-04-25T04:32:03;5.13;;;1.17;;
47715;SDS011;33476;50.984;3.538;2023-04-25T04:34:29;9.68;;;0.98;;
47715;SDS011;33476;50.984;3.538;2023-04-25T04:36:56;9.57;;;1.45;;
47715;SDS011;33476;50.984;3.538;2023-04-25T04:39:21;3.75;;;1.40;;
47715;SDS011;33476;50.984;3.538;2023-04-25T04:41:47;6.60;;;0.93;;
47715;SDS011;33476;50.984;3.538;2023-04-25T04:44:12;9.20;;;1.02;;
47715;SDS011;33476;50.984;3.538;2023-04-25T04:46:39;11.75;;;0.88;;
47715;SDS011;33476;50.984;3.538;2023-04-25T04:49:05;5.43;;;0.80;;
47715;SDS011;33476;50.984;3.538;2023-04-25T04:51:31;9.40;;;0.88;;
47715;SDS011;33476;50.984;3.538;2023-04-25T04:53:57;5.85;;;0.65;;
47715;SDS011;33476;50.984;3.538;2023-04-25T04:56:27;9.47;;;1.00;;
47715;SDS011;33476;50.984;3.538;2023-04-25T04:58:53;9.10;;;0.77;;
47715;SDS011;33476;50.984;3.538;2023-04-25T05:01:18;6.63;;;1.10;;
47715;SDS011;33476;50.984;3.538;2023-04-25T05:03:43;7.82;;;0.73;;
47715;SDS011;33476;50.984;3.538;2023-04-25T05:06:09;7.68;;;0.70;;
47715;SDS011;33476;50.984;3.538;2023-04-25T05:08:35;6.95;;;0.80;;
47715;SDS011;33476;50.984;3.538;2023-04-25T05:11:01;6.38;;;1.00;;
47715;SDS011;33476;50.984;3.538;2023-04-25T05:13:26;8.20;;;0.55;;
47715;SDS011;33476;50.984;3.538;2023-04-25T05:15:52;4.80;;;0.88;;
47715;SDS011;33476;50.984;3.538;2023-04-25T05:18:17;5.40;;;0.75;;
47715;SDS011;33476;50.984;3.538;2023-04-25T05:20:42;9.80;;;1.15;;
47715;SDS011;33476;50.984;3.538;2023-04-25T05:23:08;6.82;;;1.00;;
47715;SDS011;33476;50.984;3.538;2023-04-25T05:25:33;3.78;;;0.57;;
47715;SDS011;33476;50.984;3.538;2023-04-25T05:27:59;10.55;;;1.10;;
47715;SDS011;33476;50.984;3.538;2023-04-25T05:30:24;8.85;;;0.95;;
47715;SDS011;33476;50.984;3.538;2023-04-25T05:32:50;4.65;;;0.90;;
47715;SDS011;33476;50.984;3.538;2023-04-25T05:35:15;5.18;;;0.60;;
47715;SDS011;33476;50.984;3.538;2023-04-25T05:37:41;5.40;;;1.00;;
47715;SDS011;33476;50.984;3.538;2023-04-25T05:40:07;6.72;;;0.70;;
47715;SDS011;33476;50.984;3.538;2023-04-25T05:42:33;6.68;;;0.85;;
47715;SDS011;33476;50.984;3.538;2023-04-25T05:44:59;6.88;;;0.63;;
47715;SDS011;33476;50.984;3.538;2023-04-25T05:47:25;7.00;;;1.10;;
47715;SDS011;33476;50.984;3.538;2023-04-25T05:49:51;6.55;;;1.05;;
47715;SDS011;33476;50.984;3.538;2023-04-25T05:52:16;9.05;;;1.20;;
47715;SDS011;33476;50.984;3.538;2023-04-25T05:54:42;5.68;;;0.98;;
47715;SDS011;33476;50.984;3.538;2023-04-25T05:57:07;5.32;;;0.50;;
47715;SDS011;33476;50.984;3.538;2023-04-25T05:59:32;5.10;;;0.90;;
47715;SDS011;33476;50.984;3.538;2023-04-25T06:01:58;12.07;;;1.02;;
47715;SDS011;33476;50.984;3.538;2023-04-25T06:04:23;12.18;;;1.35;;
47715;SDS011;33476;50.984;3.538;2023-04-25T06:06:48;5.15;;;0.60;;
47715;SDS011;33476;50.984;3.538;2023-04-25T06:09:14;8.77;;;1.00;;
47715;SDS011;33476;50.984;3.538;2023-04-25T06:11:39;6.57;;;1.23;;
47715;SDS011;33476;50.984;3.538;2023-04-25T06:14:05;8.05;;;1.10;;
47715;SDS011;33476;50.984;3.538;2023-04-25T06:16:31;14.27;;;1.10;;
47715;SDS011;33476;50.984;3.538;2023-04-25T06:18:56;6.50;;;0.98;;
47715;SDS011;33476;50.984;3.538;2023-04-25T06:21:21;8.43;;;1.20;;
47715;SDS011;33476;50.984;3.538;2023-04-25T06:23:47;8.43;;;1.08;;
47715;SDS011;33476;50.984;3.538;2023-04-25T06:26:12;9.63;;;0.90;;
47715;SDS011;33476;50.984;3.538;2023-04-25T06:28:37;8.40;;;0.98;;
47715;SDS011;33476;50.984;3.538;2023-04-25T06:31:03;7.60;;;0.95;;
47715;SDS011;33476;50.984;3.538;2023-04-25T06:33:28;7.65;;;0.88;;
47715;SDS011;33476;50.984;3.538;2023-04-25T06:35:54;4.43;;;0.70;;
47715;SDS011;33476;50.984;3.538;2023-04-25T06:38:19;5.65;;;0.50;;
47715;SDS011;33476;50.984;3.538;2023-04-25T06:40:45;3.72;;;0.45;;
47715;SDS011;33476;50.984;3.538;2023-04-25T06:43:10;5.10;;;0.38;;
47715;SDS011;33476;50.984;3.538;2023-04-25T06:45:35;7.35;;;0.60;;
47715;SDS011;33476;50.984;3.538;2023-04-25T06:48:01;3.83;;;0.65;;
47715;SDS011;33476;50.984;3.538;2023-04-25T06:50:26;5.22;;;0.55;;
47715;SDS011;33476;50.984;3.538;2023-04-25T06:52:52;8.48;;;0.60;;
47715;SDS011;33476;50.984;3.538;2023-04-25T06:55:17;3.15;;;0.50;;
47715;SDS011;33476;50.984;3.538;2023-04-25T06:57:43;5.00;;;0.40;;
47715;SDS011;33476;50.984;3.538;2023-04-25T07:00:08;8.07;;;0.57;;
47715;SDS011;33476;50.984;3.538;2023-04-25T07:02:34;5.30;;;0.90;;
47715;SDS011;33476;50.984;3.538;2023-04-25T07:05:00;4.95;;;0.45;;
47715;SDS011;33476;50.984;3.538;2023-04-25T07:07:29;4.15;;;0.52;;
47715;SDS011;33476;50.984;3.538;2023-04-25T07:09:55;2.97;;;0.40;;
47715;SDS011;33476;50.984;3.538;2023-04-25T07:12:20;6.97;;;0.57;;
47715;SDS011;33476;50.984;3.538;2023-04-25T07:14:46;3.72;;;0.30;;
47715;SDS011;33476;50.984;3.538;2023-04-25T07:17:11;4.47;;;0.63;;
47715;SDS011;33476;50.984;3.538;2023-04-25T07:19:37;6.78;;;0.45;;
47715;SDS011;33476;50.984;3.538;2023-04-25T07:22:04;3.22;;;0.60;;
47715;SDS011;33476;50.984;3.538;2023-04-25T07:24:30;4.10;;;0.60;;
47715;SDS011;33476;50.984;3.538;2023-04-25T07:26:56;5.05;;;0.68;;
47715;SDS011;33476;50.984;3.538;2023-04-25T07:29:21;7.65;;;0.40;;
47715;SDS011;33476;50.984;3.538;2023-04-25T07:31:46;1.80;;;0.40;;
47715;SDS011;33476;50.984;3.538;2023-04-25T07:34:12;7.10;;;0.65;;
47715;SDS011;33476;50.984;3.538;2023-04-25T07:36:38;2.70;;;0.35;;
47715;SDS011;33476;50.984;3.538;2023-04-25T07:39:03;7.68;;;0.60;;
47715;SDS011;33476;50.984;3.538;2023-04-25T07:41:28;5.57;;;0.73;;
47715;SDS011;33476;50.984;3.538;2023-04-25T07:43:54;10.65;;;0.57;;
47715;SDS011;33476;50.984;3.538;2023-04-25T07:46:19;4.90;;;0.35;;
47715;SDS011;33476;50.984;3.538;2023-04-25T07:48:45;5.82;;;0.40;;
47715;SDS011;33476;50.984;3.538;2023-04-25T07:51:10;6.13;;;0.52;;
47715;SDS011;33476;50.984;3.538;2023-04-25T07:53:35;4.30;;;0.50;;
47715;SDS011;33476;50.984;3.538;2023-04-25T07:56:02;3.85;;;0.28;;
47715;SDS011;33476;50.984;3.538;2023-04-25T07:58:28;4.55;;;0.30;;
47715;SDS011;33476;50.984;3.538;2023-04-25T08:00:53;5.22;;;0.82;;
47715;SDS011;33476;50.984;3.538;2023-04-25T08:03:19;6.72;;;0.35;;
47715;SDS011;33476;50.984;3.538;2023-04-25T08:05:45;3.67;;;0.50;;
47715;SDS011;33476;50.984;3.538;2023-04-25T08:08:10;4.88;;;0.35;;
47715;SDS011;33476;50.984;3.538;2023-04-25T08:10:36;2.17;;;0.30;;
47715;SDS011;33476;50.984;3.538;2023-04-25T08:13:01;6.18;;;0.50;;
47715;SDS011;33476;50.984;3.538;2023-04-25T08:15:27;1.30;;;0.40;;
47715;SDS011;33476;50.984;3.538;2023-04-25T08:17:52;5.85;;;0.43;;
47715;SDS011;33476;50.984;3.538;2023-04-25T08:20:18;0.80;;;0.20;;
47715;SDS011;33476;50.984;3.538;2023-04-25T08:22:43;6.65;;;0.32;;
47715;SDS011;33476;50.984;3.538;2023-04-25T08:25:09;4.30;;;0.65;;
47715;SDS011;33476;50.984;3.538;2023-04-25T08:27:34;1.17;;;0.30;;
47715;SDS011;33476;50.984;3.538;2023-04-25T08:30:00;3.42;;;0.50;;
47715;SDS011;33476;50.984;3.538;2023-04-25T08:32:26;6.43;;;0.32;;
47715;SDS011;33476;50.984;3.538;2023-04-25T08:34:51;7.10;;;0.30;;
47715;SDS011;33476;50.984;3.538;2023-04-25T08:37:19;4.32;;;0.52;;
47715;SDS011;33476;50.984;3.538;2023-04-25T08:39:45;2.53;;;0.47;;
47715;SDS011;33476;50.984;3.538;2023-04-25T08:42:11;3.60;;;0.30;;
47715;SDS011;33476;50.984;3.538;2023-04-25T08:44:37;2.85;;;0.20;;
47715;SDS011;33476;50.984;3.538;2023-04-25T08:47:03;1.27;;;0.20;;
47715;SDS011;33476;50.984;3.538;2023-04-25T08:49:32;1.52;;;0.60;;
47715;SDS011;33476;50.984;3.538;2023-04-25T08:52:02;4.18;;;0.17;;
47715;SDS011;33476;50.984;3.538;2023-04-25T08:54:31;1.98;;;0.30;;
47715;SDS011;33476;50.984;3.538;2023-04-25T08:56:59;4.10;;;0.63;;
47715;SDS011;33476;50.984;3.538;2023-04-25T08:59:32;6.57;;;0.40;;
47715;SDS011;33476;50.984;3.538;2023-04-25T09:01:57;4.90;;;0.50;;
47715;SDS011;33476;50.984;3.538;2023-04-25T09:04:23;6.45;;;0.30;;
47715;SDS011;33476;50.984;3.538;2023-04-25T09:06:48;9.65;;;0.75;;
47715;SDS011;33476;50.984;3.538;2023-04-25T09:09:14;5.00;;;0.50;;
47715;SDS011;33476;50.984;3.538;2023-04-25T09:11:39;4.05;;;0.60;;
47715;SDS011;33476;50.984;3.538;2023-04-25T09:19:34;6.80;;;0.32;;
47715;SDS011;33476;50.984;3.538;2023-04-25T09:22:01;3.13;;;0.20;;
47715;SDS011;33476;50.984;3.538;2023-04-25T09:24:32;3.00;;;0.28;;
47715;SDS011;33476;50.984;3.538;2023-04-25T09:27:02;4.35;;;0.30;;
47715;SDS011;33476;50.984;3.538;2023-04-25T09:29:36;4.55;;;0.20;;
47715;SDS011;33476;50.984;3.538;2023-04-25T09:32:16;2.45;;;0.15;;
47715;SDS011;33476;50.984;3.538;2023-04-25T09:34:49;2.05;;;0.25;;
47715;SDS011;33476;50.984;3.538;2023-04-25T09:37:26;2.45;;;0.20;;
47715;SDS011;33476;50.984;3.538;2023-04-25T09:39:53;1.63;;;0.15;;
47715;SDS011;33476;50.984;3.538;2023-04-25T09:42:24;4.38;;;0.25;;
47715;SDS011;33476;50.984;3.538;2023-04-25T09:47:18;2.53;;;0.30;;
47715;SDS011;33476;50.984;3.538;2023-04-25T09:49:46;4.45;;;0.20;;
47715;SDS011;33476;50.984;3.538;2023-04-25T09:52:16;6.70;;;0.30;;
47715;SDS011;33476;50.984;3.538;2023-04-25T09:54:47;3.08;;;0.30;;
47715;SDS011;33476;50.984;3.538;2023-04-25T09:59:44;2.08;;;0.20;;
47715;SDS011;33476;50.984;3.538;2023-04-25T10:04:37;4.35;;;0.30;;
47715;SDS011;33476;50.984;3.538;2023-04-25T10:07:05;2.90;;;0.40;;
47715;SDS011;33476;50.984;3.538;2023-04-25T10:09:31;2.42;;;0.30;;
47715;SDS011;33476;50.984;3.538;2023-04-25T10:11:58;4.22;;;0.20;;
47715;SDS011;33476;50.984;3.538;2023-04-25T10:14:25;23.45;;;0.38;;
47715;SDS011;33476;50.984;3.538;2023-04-25T10:16:51;0.30;;;0.00;;
47715;SDS011;33476;50.984;3.538;2023-04-25T10:19:19;0.65;;;0.15;;
47715;SDS011;33476;50.984;3.538;2023-04-25T10:21:50;1.45;;;0.10;;
47715;SDS011;33476;50.984;3.538;2023-04-25T10:24:17;2.92;;;0.32;;
47715;SDS011;33476;50.984;3.538;2023-04-25T10:26:44;1.75;;;0.10;;
47715;SDS011;33476;50.984;3.538;2023-04-25T10:29:10;2.72;;;0.30;;
47715;SDS011;33476;50.984;3.538;2023-04-25T10:31:44;0.38;;;0.10;;
47715;SDS011;33476;50.984;3.538;2023-04-25T10:34:10;2.88;;;0.10;;
47715;SDS011;33476;50.984;3.538;2023-04-25T10:36:36;2.70;;;0.10;;
47715;SDS011;33476;50.984;3.538;2023-04-25T10:39:03;1.08;;;0.10;;
47715;SDS011;33476;50.984;3.538;2023-04-25T10:41:46;4.15;;;0.28;;
47715;SDS011;33476;50.984;3.538;2023-04-25T10:44:16;2.15;;;0.35;;
47715;SDS011;33476;50.984;3.538;2023-04-25T10:46:42;3.92;;;0.25;;
47715;SDS011;33476;50.984;3.538;2023-04-25T10:49:09;4.82;;;0.10;;
47715;SDS011;33476;50.984;3.538;2023-04-25T10:51:35;4.70;;;0.30;;
47715;SDS011;33476;50.984;3.538;2023-04-25T10:54:05;3.92;;;0.40;;
47715;SDS011;33476;50.984;3.538;2023-04-25T10:56:32;4.95;;;0.20;;
47715;SDS011;33476;50.984;3.538;2023-04-25T10:59:10;4.30;;;0.20;;
47715;SDS011;33476;50.984;3.538;2023-04-25T11:04:31;5.43;;;0.40;;
47715;SDS011;33476;50.984;3.538;2023-04-25T11:07:07;1.08;;;0.30;;
47715;SDS011;33476;50.984;3.538;2023-04-25T11:09:40;0.60;;;0.10;;
47715;SDS011;33476;50.984;3.538;2023-04-25T11:12:07;0.73;;;0.10;;
47715;SDS011;33476;50.984;3.538;2023-04-25T11:14:33;0.98;;;0.20;;
47715;SDS011;33476;50.984;3.538;2023-04-25T11:16:59;2.30;;;0.20;;
47715;SDS011;33476;50.984;3.538;2023-04-25T11:19:27;2.45;;;0.20;;
47715;SDS011;33476;50.984;3.538;2023-04-25T11:21:57;5.07;;;0.35;;
47715;SDS011;33476;50.984;3.538;2023-04-25T11:24:27;2.83;;;0.20;;
47715;SDS011;33476;50.984;3.538;2023-04-25T11:26:53;1.88;;;0.10;;
47715;SDS011;33476;50.984;3.538;2023-04-25T11:29:21;5.70;;;0.20;;
47715;SDS011;33476;50.984;3.538;2023-04-25T11:31:54;1.42;;;0.17;;
47715;SDS011;33476;50.984;3.538;2023-04-25T11:34:22;2.88;;;0.40;;
47715;SDS011;33476;50.984;3.538;2023-04-25T11:36:50;3.42;;;0.25;;
47715;SDS011;33476;50.984;3.538;2023-04-25T11:39:15;0.98;;;0.10;;
47715;SDS011;33476;50.984;3.538;2023-04-25T11:41:41;1.35;;;0.30;;
47715;SDS011;33476;50.984;3.538;2023-04-25T11:44:07;0.98;;;0.10;;
47715;SDS011;33476;50.984;3.538;2023-04-25T11:46:35;1.77;;;0.00;;
47715;SDS011;33476;50.984;3.538;2023-04-25T11:49:01;1.95;;;0.10;;
47715;SDS011;33476;50.984;3.538;2023-04-25T11:51:27;3.10;;;0.13;;
47715;SDS011;33476;50.984;3.538;2023-04-25T11:53:52;4.43;;;0.10;;
47715;SDS011;33476;50.984;3.538;2023-04-25T11:56:18;4.95;;;0.32;;
47715;SDS011;33476;50.984;3.538;2023-04-25T11:58:57;2.80;;;0.30;;
47715;SDS011;33476;50.984;3.538;2023-04-25T12:01:28;5.93;;;0.35;;
47715;SDS011;33476;50.984;3.538;2023-04-25T12:03:58;5.13;;;0.47;;
47715;SDS011;33476;50.984;3.538;2023-04-25T12:06:27;3.55;;;0.22;;
47715;SDS011;33476;50.984;3.538;2023-04-25T12:09:02;2.70;;;0.40;;
47715;SDS011;33476;50.984;3.538;2023-04-25T12:11:32;4.45;;;0.30;;
47715;SDS011;33476;50.984;3.538;2023-04-25T12:14:03;5.03;;;0.20;;
47715;SDS011;33476;50.984;3.538;2023-04-25T12:16:44;2.17;;;0.17;;
47715;SDS011;33476;50.984;3.538;2023-04-25T12:19:14;2.13;;;0.20;;
47715;SDS011;33476;50.984;3.538;2023-04-25T12:21:40;2.90;;;0.30;;
47715;SDS011;33476;50.984;3.538;2023-04-25T12:24:12;5.47;;;0.38;;
47715;SDS011;33476;50.984;3.538;2023-04-25T12:26:46;4.07;;;0.35;;
47715;SDS011;33476;50.984;3.538;2023-04-25T12:29:19;4.18;;;0.38;;
47715;SDS011;33476;50.984;3.538;2023-04-25T12:31:46;6.38;;;0.57;;
47715;SDS011;33476;50.984;3.538;2023-04-25T12:34:12;4.05;;;0.10;;
47715;SDS011;33476;50.984;3.538;2023-04-25T12:36:37;4.72;;;0.40;;
47715;SDS011;33476;50.984;3.538;2023-04-25T12:39:03;6.20;;;0.30;;
47715;SDS011;33476;50.984;3.538;2023-04-25T12:41:29;4.47;;;0.40;;
47715;SDS011;33476;50.984;3.538;2023-04-25T12:43:55;1.33;;;0.10;;
47715;SDS011;33476;50.984;3.538;2023-04-25T12:46:20;1.95;;;0.20;;
47715;SDS011;33476;50.984;3.538;2023-04-25T12:48:47;3.65;;;0.30;;
47715;SDS011;33476;50.984;3.538;2023-04-25T12:51:13;3.97;;;0.32;;
47715;SDS011;33476;50.984;3.538;2023-04-25T12:53:38;3.38;;;0.20;;
47715;SDS011;33476;50.984;3.538;2023-04-25T12:56:05;4.97;;;0.32;;
47715;SDS011;33476;50.984;3.538;2023-04-25T12:58:34;6.97;;;0.38;;
47715;SDS011;33476;50.984;3.538;2023-04-25T13:01:00;1.65;;;0.20;;
47715;SDS011;33476;50.984;3.538;2023-04-25T13:03:25;0.88;;;0.10;;
47715;SDS011;33476;50.984;3.538;2023-04-25T13:05:51;2.50;;;0.20;;
47715;SDS011;33476;50.984;3.538;2023-04-25T13:08:20;4.85;;;0.30;;
47715;SDS011;33476;50.984;3.538;2023-04-25T13:10:45;3.00;;;0.20;;
47715;SDS011;33476;50.984;3.538;2023-04-25T13:13:12;4.95;;;0.45;;
47715;SDS011;33476;50.984;3.538;2023-04-25T13:15:38;6.10;;;0.20;;
47715;SDS011;33476;50.984;3.538;2023-04-25T13:18:03;6.85;;;0.20;;
47715;SDS011;33476;50.984;3.538;2023-04-25T13:20:30;3.17;;;0.20;;
47715;SDS011;33476;50.984;3.538;2023-04-25T13:22:56;2.70;;;0.20;;
47715;SDS011;33476;50.984;3.538;2023-04-25T13:25:22;3.38;;;0.38;;
47715;SDS011;33476;50.984;3.538;2023-04-25T13:27:47;5.57;;;0.30;;
47715;SDS011;33476;50.984;3.538;2023-04-25T13:30:13;5.82;;;0.40;;
47715;SDS011;33476;50.984;3.538;2023-04-25T13:32:38;2.47;;;0.28;;
47715;SDS011;33476;50.984;3.538;2023-04-25T13:35:06;6.07;;;0.50;;
47715;SDS011;33476;50.984;3.538;2023-04-25T13:37:33;7.10;;;0.30;;
47715;SDS011;33476;50.984;3.538;2023-04-25T13:40:02;2.65;;;0.38;;
47715;SDS011;33476;50.984;3.538;2023-04-25T13:44:58;3.67;;;0.50;;
47715;SDS011;33476;50.984;3.538;2023-04-25T13:47:23;1.40;;;0.17;;
47715;SDS011;33476;50.984;3.538;2023-04-25T13:49:49;4.22;;;0.30;;
47715;SDS011;33476;50.984;3.538;2023-04-25T13:52:15;1.67;;;0.17;;
47715;SDS011;33476;50.984;3.538;2023-04-25T13:54:40;2.17;;;0.32;;
47715;SDS011;33476;50.984;3.538;2023-04-25T13:57:06;3.28;;;0.20;;
47715;SDS011;33476;50.984;3.538;2023-04-25T13:59:31;2.22;;;0.10;;
47715;SDS011;33476;50.984;3.538;2023-04-25T14:01:57;3.63;;;0.40;;
47715;SDS011;33476;50.984;3.538;2023-04-25T14:04:23;1.33;;;0.13;;
47715;SDS011;33476;50.984;3.538;2023-04-25T14:06:48;3.35;;;0.10;;
47715;SDS011;33476;50.984;3.538;2023-04-25T14:09:14;1.23;;;0.10;;
47715;SDS011;33476;50.984;3.538;2023-04-25T14:11:40;1.05;;;0.10;;
47715;SDS011;33476;50.984;3.538;2023-04-25T14:14:06;4.50;;;0.30;;
47715;SDS011;33476;50.984;3.538;2023-04-25T14:16:31;2.17;;;0.20;;
47715;SDS011;33476;50.984;3.538;2023-04-25T14:18:59;1.58;;;0.17;;
47715;SDS011;33476;50.984;3.538;2023-04-25T14:21:26;2.13;;;0.15;;
47715;SDS011;33476;50.984;3.538;2023-04-25T14:23:51;1.75;;;0.20;;
47715;SDS011;33476;50.984;3.538;2023-04-25T14:26:17;1.17;;;0.10;;
47715;SDS011;33476;50.984;3.538;2023-04-25T14:28:42;4.18;;;0.40;;
47715;SDS011;33476;50.984;3.538;2023-04-25T14:31:08;2.92;;;0.50;;
47715;SDS011;33476;50.984;3.538;2023-04-25T14:33:34;4.32;;;0.30;;
47715;SDS011;33476;50.984;3.538;2023-04-25T14:35:59;3.63;;;0.30;;
47715;SDS011;33476;50.984;3.538;2023-04-25T14:38:25;4.95;;;0.30;;
47715;SDS011;33476;50.984;3.538;2023-04-25T14:40:51;4.55;;;0.30;;
47715;SDS011;33476;50.984;3.538;2023-04-25T14:43:17;2.80;;;0.20;;
47715;SDS011;33476;50.984;3.538;2023-04-25T14:45:42;4.45;;;0.30;;
47715;SDS011;33476;50.984;3.538;2023-04-25T14:48:08;4.15;;;0.43;;
47715;SDS011;33476;50.984;3.538;2023-04-25T14:50:33;4.68;;;0.47;;
47715;SDS011;33476;50.984;3.538;2023-04-25T14:52:59;5.50;;;0.30;;
47715;SDS011;33476;50.984;3.538;2023-04-25T14:55:25;5.20;;;0.30;;
47715;SDS011;33476;50.984;3.538;2023-04-25T14:57:54;3.20;;;0.20;;
47715;SDS011;33476;50.984;3.538;2023-04-25T15:00:20;4.85;;;0.20;;